sensor_id;sensor_type;location;lat;lon;timestamp;temperature;humidity
17170;DHT22;8700;48.222;16.342;2024-03-17T00:01:01;12.40;99.90
17170;DHT22;8700;48.222;16.342;2024-03-17T00:04:23;12.30;99.90
17170;DHT22;8700;48.222;16.342;2024-03-17T00:07:44;12.30;99.90
17170;DHT22;8700;48.222;16.342;2024-03-17T00:11:06;12.30;99.90
17170;DHT22;8700;48.222;16.342;2024-03-17T00:14:27;12.30;99.90
17170;DHT22;8700;48.222;16.342;2024-03-17T00:17:50;12.50;99.90
17170;DHT22;8700;48.222;16.342;2024-03-17T00:21:10;12.30;99.90
17170;DHT22;8700;48.222;16.342;2024-03-17T00:24:31;12.10;99.90
17170;DHT22;8700;48.222;16.342;2024-03-17T00:27:54;12.30;99.90
17170;DHT22;8700;48.222;16.342;2024-03-17T00:31:17;12.20;99.90
17170;DHT22;8700;48.222;16.342;2024-03-17T00:34:40;12.10;99.90
17170;DHT22;8700;48.222;16.342;2024-03-17T00:38:00;12.10;99.90
17170;DHT22;8700;48.222;16.342;2024-03-17T00:41:24;11.90;99.90
17170;DHT22;8700;48.222;16.342;2024-03-17T00:44:45;12.10;99.90
17170;DHT22;8700;48.222;16.342;2024-03-17T00:48:06;12.00;99.90
17170;DHT22;8700;48.222;16.342;2024-03-17T00:51:29;11.80;99.90
17170;DHT22;8700;48.222;16.342;2024-03-17T00:54:50;11.80;99.90
17170;DHT22;8700;48.222;16.342;2024-03-17T00:58:11;11.80;99.90
17170;DHT22;8700;48.222;16.342;2024-03-17T01:01:32;11.80;99.90
17170;DHT22;8700;48.222;16.342;2024-03-17T01:04:52;11.90;99.90
17170;DHT22;8700;48.222;16.342;2024-03-17T01:08:14;11.90;99.90
17170;DHT22;8700;48.222;16.342;2024-03-17T01:11:34;11.90;99.90
17170;DHT22;8700;48.222;16.342;2024-03-17T01:14:56;11.90;99.90
17170;DHT22;8700;48.222;16.342;2024-03-17T01:18:17;11.70;99.90
17170;DHT22;8700;48.222;16.342;2024-03-17T01:21:37;11.80;99.90
17170;DHT22;8700;48.222;16.342;2024-03-17T01:25:00;11.90;99.90
17170;DHT22;8700;48.222;16.342;2024-03-17T01:28:21;11.90;99.90
17170;DHT22;8700;48.222;16.342;2024-03-17T01:31:42;11.80;99.90
17170;DHT22;8700;48.222;16.342;2024-03-17T01:35:04;11.90;99.90
17170;DHT22;8700;48.222;16.342;2024-03-17T01:38:26;12.00;99.90
17170;DHT22;8700;48.222;16.342;2024-03-17T01:41:48;11.90;99.90
17170;DHT22;8700;48.222;16.342;2024-03-17T01:45:27;11.70;99.90
17170;DHT22;8700;48.222;16.342;2024-03-17T01:48:48;11.80;99.90
17170;DHT22;8700;48.222;16.342;2024-03-17T01:52:09;11.80;99.90
17170;DHT22;8700;48.222;16.342;2024-03-17T01:55:30;11.80;99.90
17170;DHT22;8700;48.222;16.342;2024-03-17T01:58:53;11.70;99.90
17170;DHT22;8700;48.222;16.342;2024-03-17T02:02:15;11.70;99.90
17170;DHT22;8700;48.222;16.342;2024-03-17T02:05:35;11.50;99.90
17170;DHT22;8700;48.222;16.342;2024-03-17T02:08:57;11.50;99.90
17170;DHT22;8700;48.222;16.342;2024-03-17T02:12:17;11.30;99.90
17170;DHT22;8700;48.222;16.342;2024-03-17T02:15:40;11.30;99.90
17170;DHT22;8700;48.222;16.342;2024-03-17T02:19:01;11.30;99.90
17170;DHT22;8700;48.222;16.342;2024-03-17T02:22:23;11.20;99.90
17170;DHT22;8700;48.222;16.342;2024-03-17T02:25:44;11.20;99.90
17170;DHT22;8700;48.222;16.342;2024-03-17T02:29:06;11.10;99.90
17170;DHT22;8700;48.222;16.342;2024-03-17T02:32:27;11.00;99.90
17170;DHT22;8700;48.222;16.342;2024-03-17T02:35:49;11.00;99.90
17170;DHT22;8700;48.222;16.342;2024-03-17T02:39:10;10.90;99.90
17170;DHT22;8700;48.222;16.342;2024-03-17T02:42:49;10.80;99.90
17170;DHT22;8700;48.222;16.342;2024-03-17T02:46:11;10.80;99.90
17170;DHT22;8700;48.222;16.342;2024-03-17T02:49:32;10.70;99.90
17170;DHT22;8700;48.222;16.342;2024-03-17T02:52:56;10.70;99.90
17170;DHT22;8700;48.222;16.342;2024-03-17T02:56:19;10.60;99.90
17170;DHT22;8700;48.222;16.342;2024-03-17T02:59:40;10.30;99.90
17170;DHT22;8700;48.222;16.342;2024-03-17T03:03:01;10.20;99.90
17170;DHT22;8700;48.222;16.342;2024-03-17T03:06:22;10.10;99.90
17170;DHT22;8700;48.222;16.342;2024-03-17T03:09:44;10.10;99.90
17170;DHT22;8700;48.222;16.342;2024-03-17T03:13:07;10.00;99.90
17170;DHT22;8700;48.222;16.342;2024-03-17T03:16:28;10.00;99.90
17170;DHT22;8700;48.222;16.342;2024-03-17T03:19:49;10.10;99.90
17170;DHT22;8700;48.222;16.342;2024-03-17T03:23:10;10.10;99.90
17170;DHT22;8700;48.222;16.342;2024-03-17T03:26:31;10.00;99.90
17170;DHT22;8700;48.222;16.342;2024-03-17T03:29:54;9.90;99.90
17170;DHT22;8700;48.222;16.342;2024-03-17T03:33:15;10.00;99.90
17170;DHT22;8700;48.222;16.342;2024-03-17T03:36:38;10.00;99.90
17170;DHT22;8700;48.222;16.342;2024-03-17T03:40:01;10.00;99.90
17170;DHT22;8700;48.222;16.342;2024-03-17T03:43:28;9.90;99.90
17170;DHT22;8700;48.222;16.342;2024-03-17T03:46:52;10.00;99.90
17170;DHT22;8700;48.222;16.342;2024-03-17T03:50:20;9.90;99.90
17170;DHT22;8700;48.222;16.342;2024-03-17T03:53:41;9.80;99.90
17170;DHT22;8700;48.222;16.342;2024-03-17T03:57:03;9.90;99.90
17170;DHT22;8700;48.222;16.342;2024-03-17T04:00:25;9.90;99.90
17170;DHT22;8700;48.222;16.342;2024-03-17T04:03:50;9.80;99.90
17170;DHT22;8700;48.222;16.342;2024-03-17T04:07:12;9.60;99.90
17170;DHT22;8700;48.222;16.342;2024-03-17T04:10:33;9.50;99.90
17170;DHT22;8700;48.222;16.342;2024-03-17T04:13:55;9.40;99.90
17170;DHT22;8700;48.222;16.342;2024-03-17T04:17:17;9.40;99.90
17170;DHT22;8700;48.222;16.342;2024-03-17T04:20:41;9.30;99.90
17170;DHT22;8700;48.222;16.342;2024-03-17T04:24:02;9.10;99.90
17170;DHT22;8700;48.222;16.342;2024-03-17T04:27:23;9.20;99.90
17170;DHT22;8700;48.222;16.342;2024-03-17T04:30:45;9.20;99.90
17170;DHT22;8700;48.222;16.342;2024-03-17T04:34:07;9.20;99.90
17170;DHT22;8700;48.222;16.342;2024-03-17T04:37:30;9.20;99.90
17170;DHT22;8700;48.222;16.342;2024-03-17T04:40:51;9.10;99.90
17170;DHT22;8700;48.222;16.342;2024-03-17T04:44:17;9.10;99.90
17170;DHT22;8700;48.222;16.342;2024-03-17T04:47:38;9.10;99.90
17170;DHT22;8700;48.222;16.342;2024-03-17T04:51:00;9.10;99.90
17170;DHT22;8700;48.222;16.342;2024-03-17T04:54:22;8.90;99.90
17170;DHT22;8700;48.222;16.342;2024-03-17T04:57:44;9.00;99.90
17170;DHT22;8700;48.222;16.342;2024-03-17T05:01:06;9.00;99.90
17170;DHT22;8700;48.222;16.342;2024-03-17T05:04:27;9.00;99.90
17170;DHT22;8700;48.222;16.342;2024-03-17T05:07:48;9.00;99.90
17170;DHT22;8700;48.222;16.342;2024-03-17T05:11:12;9.00;99.90
17170;DHT22;8700;48.222;16.342;2024-03-17T05:14:34;8.90;99.90
17170;DHT22;8700;48.222;16.342;2024-03-17T05:17:55;8.90;99.90
17170;DHT22;8700;48.222;16.342;2024-03-17T05:21:16;8.90;99.90
17170;DHT22;8700;48.222;16.342;2024-03-17T05:24:37;9.00;99.90
17170;DHT22;8700;48.222;16.342;2024-03-17T05:28:00;8.90;99.90
17170;DHT22;8700;48.222;16.342;2024-03-17T05:31:21;9.00;99.90
17170;DHT22;8700;48.222;16.342;2024-03-17T05:34:42;8.90;99.90
17170;DHT22;8700;48.222;16.342;2024-03-17T05:38:04;8.90;99.90
17170;DHT22;8700;48.222;16.342;2024-03-17T05:41:25;9.00;99.90
17170;DHT22;8700;48.222;16.342;2024-03-17T05:44:49;9.10;99.90
17170;DHT22;8700;48.222;16.342;2024-03-17T05:48:10;9.20;99.90
17170;DHT22;8700;48.222;16.342;2024-03-17T05:51:31;9.20;99.90
17170;DHT22;8700;48.222;16.342;2024-03-17T05:54:53;9.30;99.90
17170;DHT22;8700;48.222;16.342;2024-03-17T05:58:15;9.20;99.90
17170;DHT22;8700;48.222;16.342;2024-03-17T06:01:38;9.20;99.90
17170;DHT22;8700;48.222;16.342;2024-03-17T06:04:59;9.20;99.90
17170;DHT22;8700;48.222;16.342;2024-03-17T06:08:23;9.20;99.90
17170;DHT22;8700;48.222;16.342;2024-03-17T06:11:46;9.30;99.90
17170;DHT22;8700;48.222;16.342;2024-03-17T06:15:07;9.50;99.90
17170;DHT22;8700;48.222;16.342;2024-03-17T06:18:30;9.60;99.90
17170;DHT22;8700;48.222;16.342;2024-03-17T06:21:51;9.60;99.90
17170;DHT22;8700;48.222;16.342;2024-03-17T06:25:13;9.90;99.90
17170;DHT22;8700;48.222;16.342;2024-03-17T06:28:34;9.80;99.90
17170;DHT22;8700;48.222;16.342;2024-03-17T06:31:55;9.70;99.90
17170;DHT22;8700;48.222;16.342;2024-03-17T06:35:18;9.60;99.90
17170;DHT22;8700;48.222;16.342;2024-03-17T06:38:39;9.50;99.90
17170;DHT22;8700;48.222;16.342;2024-03-17T06:42:01;9.60;99.90
17170;DHT22;8700;48.222;16.342;2024-03-17T06:45:23;9.70;99.90
17170;DHT22;8700;48.222;16.342;2024-03-17T06:48:44;9.80;99.90
17170;DHT22;8700;48.222;16.342;2024-03-17T06:52:07;10.00;99.90
17170;DHT22;8700;48.222;16.342;2024-03-17T06:55:28;10.20;99.90
17170;DHT22;8700;48.222;16.342;2024-03-17T06:58:49;10.50;99.90
17170;DHT22;8700;48.222;16.342;2024-03-17T07:02:12;10.50;99.90
17170;DHT22;8700;48.222;16.342;2024-03-17T07:05:37;10.50;99.90
17170;DHT22;8700;48.222;16.342;2024-03-17T07:08:59;10.50;99.90
17170;DHT22;8700;48.222;16.342;2024-03-17T07:12:21;10.70;99.90
17170;DHT22;8700;48.222;16.342;2024-03-17T07:15:46;10.80;99.90
17170;DHT22;8700;48.222;16.342;2024-03-17T07:19:08;10.90;99.90
17170;DHT22;8700;48.222;16.342;2024-03-17T07:22:29;10.70;99.90
17170;DHT22;8700;48.222;16.342;2024-03-17T07:25:55;10.90;99.90
17170;DHT22;8700;48.222;16.342;2024-03-17T07:29:16;11.00;99.90
17170;DHT22;8700;48.222;16.342;2024-03-17T07:32:39;11.20;99.90
17170;DHT22;8700;48.222;16.342;2024-03-17T07:36:00;11.20;99.90
17170;DHT22;8700;48.222;16.342;2024-03-17T07:39:22;11.10;99.90
17170;DHT22;8700;48.222;16.342;2024-03-17T07:42:45;11.20;99.80
17170;DHT22;8700;48.222;16.342;2024-03-17T07:46:08;11.50;99.50
17170;DHT22;8700;48.222;16.342;2024-03-17T07:49:31;11.60;99.10
17170;DHT22;8700;48.222;16.342;2024-03-17T07:52:52;11.70;97.90
17170;DHT22;8700;48.222;16.342;2024-03-17T07:56:15;11.90;97.10
17170;DHT22;8700;48.222;16.342;2024-03-17T07:59:38;11.80;97.90
17170;DHT22;8700;48.222;16.342;2024-03-17T08:02:59;11.80;97.20
17170;DHT22;8700;48.222;16.342;2024-03-17T08:06:20;11.90;97.00
17170;DHT22;8700;48.222;16.342;2024-03-17T08:09:41;11.90;97.20
17170;DHT22;8700;48.222;16.342;2024-03-17T08:13:03;11.90;97.40
17170;DHT22;8700;48.222;16.342;2024-03-17T08:16:26;12.20;97.40
17170;DHT22;8700;48.222;16.342;2024-03-17T08:19:48;12.50;96.10
17170;DHT22;8700;48.222;16.342;2024-03-17T08:23:09;12.70;95.10
17170;DHT22;8700;48.222;16.342;2024-03-17T08:26:31;12.70;93.70
17170;DHT22;8700;48.222;16.342;2024-03-17T08:29:52;12.60;93.90
17170;DHT22;8700;48.222;16.342;2024-03-17T08:33:15;12.80;92.70
17170;DHT22;8700;48.222;16.342;2024-03-17T08:36:36;12.80;91.50
17170;DHT22;8700;48.222;16.342;2024-03-17T08:39:57;12.90;91.60
17170;DHT22;8700;48.222;16.342;2024-03-17T08:43:19;12.90;90.50
17170;DHT22;8700;48.222;16.342;2024-03-17T08:46:41;13.00;90.90
17170;DHT22;8700;48.222;16.342;2024-03-17T08:50:06;13.20;90.10
17170;DHT22;8700;48.222;16.342;2024-03-17T08:53:28;13.00;88.80
17170;DHT22;8700;48.222;16.342;2024-03-17T08:56:49;13.10;89.00
17170;DHT22;8700;48.222;16.342;2024-03-17T09:00:12;13.30;88.40
17170;DHT22;8700;48.222;16.342;2024-03-17T09:03:34;13.40;89.40
17170;DHT22;8700;48.222;16.342;2024-03-17T09:06:57;13.80;88.60
17170;DHT22;8700;48.222;16.342;2024-03-17T09:10:22;13.60;89.10
17170;DHT22;8700;48.222;16.342;2024-03-17T09:13:46;13.70;88.10
17170;DHT22;8700;48.222;16.342;2024-03-17T09:17:07;13.40;89.90
17170;DHT22;8700;48.222;16.342;2024-03-17T09:20:29;13.50;89.10
17170;DHT22;8700;48.222;16.342;2024-03-17T09:23:52;13.80;89.30
17170;DHT22;8700;48.222;16.342;2024-03-17T09:27:13;14.40;88.40
17170;DHT22;8700;48.222;16.342;2024-03-17T09:30:38;15.00;85.30
17170;DHT22;8700;48.222;16.342;2024-03-17T09:34:01;16.00;85.10
17170;DHT22;8700;48.222;16.342;2024-03-17T09:37:22;16.70;81.60
17170;DHT22;8700;48.222;16.342;2024-03-17T09:40:47;17.10;79.00
17170;DHT22;8700;48.222;16.342;2024-03-17T09:44:12;18.40;76.20
17170;DHT22;8700;48.222;16.342;2024-03-17T09:47:34;19.10;71.40
17170;DHT22;8700;48.222;16.342;2024-03-17T09:50:57;18.50;68.10
17170;DHT22;8700;48.222;16.342;2024-03-17T09:54:19;18.90;65.80
17170;DHT22;8700;48.222;16.342;2024-03-17T09:57:42;18.90;64.70
17170;DHT22;8700;48.222;16.342;2024-03-17T10:01:04;18.60;64.10
17170;DHT22;8700;48.222;16.342;2024-03-17T10:04:32;19.40;64.10
17170;DHT22;8700;48.222;16.342;2024-03-17T10:07:53;19.00;62.40
17170;DHT22;8700;48.222;16.342;2024-03-17T10:11:16;18.60;62.70
17170;DHT22;8700;48.222;16.342;2024-03-17T10:14:39;17.60;63.30
17170;DHT22;8700;48.222;16.342;2024-03-17T10:18:00;17.30;66.00
17170;DHT22;8700;48.222;16.342;2024-03-17T10:21:25;18.30;63.90
17170;DHT22;8700;48.222;16.342;2024-03-17T10:24:59;19.20;63.40
17170;DHT22;8700;48.222;16.342;2024-03-17T10:28:20;19.40;60.70
17170;DHT22;8700;48.222;16.342;2024-03-17T10:31:43;19.30;60.90
17170;DHT22;8700;48.222;16.342;2024-03-17T10:35:26;19.30;60.20
17170;DHT22;8700;48.222;16.342;2024-03-17T10:38:51;18.60;60.60
17170;DHT22;8700;48.222;16.342;2024-03-17T10:42:13;20.00;59.70
17170;DHT22;8700;48.222;16.342;2024-03-17T10:45:35;21.30;58.60
17170;DHT22;8700;48.222;16.342;2024-03-17T10:49:00;20.80;57.30
17170;DHT22;8700;48.222;16.342;2024-03-17T10:52:22;19.60;58.10
17170;DHT22;8700;48.222;16.342;2024-03-17T10:55:46;19.30;58.70
17170;DHT22;8700;48.222;16.342;2024-03-17T10:59:09;18.80;59.10
17170;DHT22;8700;48.222;16.342;2024-03-17T11:02:32;18.90;59.50
17170;DHT22;8700;48.222;16.342;2024-03-17T11:05:56;19.90;58.80
17170;DHT22;8700;48.222;16.342;2024-03-17T11:09:18;20.50;57.60
17170;DHT22;8700;48.222;16.342;2024-03-17T11:12:42;20.80;57.00
17170;DHT22;8700;48.222;16.342;2024-03-17T11:16:03;21.20;56.60
17170;DHT22;8700;48.222;16.342;2024-03-17T11:19:25;20.80;55.50
17170;DHT22;8700;48.222;16.342;2024-03-17T11:22:49;21.20;55.80
17170;DHT22;8700;48.222;16.342;2024-03-17T11:26:10;20.60;55.40
17170;DHT22;8700;48.222;16.342;2024-03-17T11:29:31;20.30;55.70
17170;DHT22;8700;48.222;16.342;2024-03-17T11:32:53;19.90;56.20
17170;DHT22;8700;48.222;16.342;2024-03-17T11:36:34;20.20;56.90
17170;DHT22;8700;48.222;16.342;2024-03-17T11:39:58;20.20;55.70
17170;DHT22;8700;48.222;16.342;2024-03-17T11:43:19;19.40;56.50
17170;DHT22;8700;48.222;16.342;2024-03-17T11:46:41;18.40;57.70
17170;DHT22;8700;48.222;16.342;2024-03-17T11:50:03;18.80;57.60
17170;DHT22;8700;48.222;16.342;2024-03-17T11:53:25;18.20;57.90
17170;DHT22;8700;48.222;16.342;2024-03-17T11:56:50;18.10;58.50
17170;DHT22;8700;48.222;16.342;2024-03-17T12:00:22;18.90;58.00
17170;DHT22;8700;48.222;16.342;2024-03-17T12:03:43;19.40;56.80
17170;DHT22;8700;48.222;16.342;2024-03-17T12:07:13;19.30;57.30
17170;DHT22;8700;48.222;16.342;2024-03-17T12:10:35;19.10;57.40
17170;DHT22;8700;48.222;16.342;2024-03-17T12:13:57;18.90;57.30
17170;DHT22;8700;48.222;16.342;2024-03-17T12:17:20;18.60;57.50
17170;DHT22;8700;48.222;16.342;2024-03-17T12:20:47;18.10;58.50
17170;DHT22;8700;48.222;16.342;2024-03-17T12:24:14;18.20;58.30
17170;DHT22;8700;48.222;16.342;2024-03-17T12:27:35;18.10;58.00
17170;DHT22;8700;48.222;16.342;2024-03-17T12:30:59;17.50;58.50
17170;DHT22;8700;48.222;16.342;2024-03-17T12:34:22;16.80;59.60
17170;DHT22;8700;48.222;16.342;2024-03-17T12:37:44;16.50;60.30
17170;DHT22;8700;48.222;16.342;2024-03-17T12:41:16;16.70;60.50
17170;DHT22;8700;48.222;16.342;2024-03-17T12:44:38;16.60;60.60
17170;DHT22;8700;48.222;16.342;2024-03-17T12:48:02;16.90;60.90
17170;DHT22;8700;48.222;16.342;2024-03-17T12:51:24;17.20;59.90
17170;DHT22;8700;48.222;16.342;2024-03-17T12:54:44;17.00;60.10
17170;DHT22;8700;48.222;16.342;2024-03-17T12:58:14;16.90;60.10
17170;DHT22;8700;48.222;16.342;2024-03-17T13:01:52;16.40;60.70
17170;DHT22;8700;48.222;16.342;2024-03-17T13:05:19;16.40;61.50
17170;DHT22;8700;48.222;16.342;2024-03-17T13:08:41;16.60;61.70
17170;DHT22;8700;48.222;16.342;2024-03-17T13:12:02;16.90;60.50
17170;DHT22;8700;48.222;16.342;2024-03-17T13:15:23;16.80;61.00
17170;DHT22;8700;48.222;16.342;2024-03-17T13:18:44;16.80;60.50
17170;DHT22;8700;48.222;16.342;2024-03-17T13:22:07;16.70;61.30
17170;DHT22;8700;48.222;16.342;2024-03-17T13:25:31;16.70;61.20
17170;DHT22;8700;48.222;16.342;2024-03-17T13:28:56;16.80;61.60
17170;DHT22;8700;48.222;16.342;2024-03-17T13:32:17;16.90;61.60
17170;DHT22;8700;48.222;16.342;2024-03-17T13:35:39;17.00;61.50
17170;DHT22;8700;48.222;16.342;2024-03-17T13:39:02;16.90;61.60
17170;DHT22;8700;48.222;16.342;2024-03-17T13:42:25;16.60;62.50
17170;DHT22;8700;48.222;16.342;2024-03-17T13:45:47;16.90;62.80
17170;DHT22;8700;48.222;16.342;2024-03-17T13:49:09;17.10;61.40
17170;DHT22;8700;48.222;16.342;2024-03-17T13:52:31;16.80;62.40
17170;DHT22;8700;48.222;16.342;2024-03-17T13:55:53;16.60;62.20
17170;DHT22;8700;48.222;16.342;2024-03-17T13:59:14;16.30;63.00
17170;DHT22;8700;48.222;16.342;2024-03-17T14:02:35;16.50;62.60
17170;DHT22;8700;48.222;16.342;2024-03-17T14:05:56;16.70;62.00
17170;DHT22;8700;48.222;16.342;2024-03-17T14:09:18;16.30;62.90
17170;DHT22;8700;48.222;16.342;2024-03-17T14:12:40;16.10;63.50
17170;DHT22;8700;48.222;16.342;2024-03-17T14:16:01;16.20;63.50
17170;DHT22;8700;48.222;16.342;2024-03-17T14:19:22;16.50;63.30
17170;DHT22;8700;48.222;16.342;2024-03-17T14:22:45;16.60;62.90
17170;DHT22;8700;48.222;16.342;2024-03-17T14:26:08;16.40;63.10
17170;DHT22;8700;48.222;16.342;2024-03-17T14:29:32;16.40;63.40
17170;DHT22;8700;48.222;16.342;2024-03-17T14:32:52;16.60;63.20
17170;DHT22;8700;48.222;16.342;2024-03-17T14:36:14;16.60;62.70
17170;DHT22;8700;48.222;16.342;2024-03-17T14:39:35;16.50;63.00
17170;DHT22;8700;48.222;16.342;2024-03-17T14:42:58;16.50;63.10
17170;DHT22;8700;48.222;16.342;2024-03-17T14:46:20;16.50;63.20
17170;DHT22;8700;48.222;16.342;2024-03-17T14:49:42;16.40;63.50
17170;DHT22;8700;48.222;16.342;2024-03-17T14:53:05;16.50;63.30
17170;DHT22;8700;48.222;16.342;2024-03-17T14:56:26;16.50;63.20
17170;DHT22;8700;48.222;16.342;2024-03-17T14:59:47;16.40;63.50
17170;DHT22;8700;48.222;16.342;2024-03-17T15:03:10;16.30;63.50
17170;DHT22;8700;48.222;16.342;2024-03-17T15:06:31;16.30;63.90
17170;DHT22;8700;48.222;16.342;2024-03-17T15:09:52;16.00;64.40
17170;DHT22;8700;48.222;16.342;2024-03-17T15:13:13;15.80;65.10
17170;DHT22;8700;48.222;16.342;2024-03-17T15:16:35;15.80;65.30
17170;DHT22;8700;48.222;16.342;2024-03-17T15:19:57;15.50;65.40
17170;DHT22;8700;48.222;16.342;2024-03-17T15:23:18;15.50;65.10
17170;DHT22;8700;48.222;16.342;2024-03-17T15:26:39;15.40;65.50
17170;DHT22;8700;48.222;16.342;2024-03-17T15:30:01;15.50;65.30
17170;DHT22;8700;48.222;16.342;2024-03-17T15:33:22;15.30;65.80
17170;DHT22;8700;48.222;16.342;2024-03-17T15:36:45;15.20;66.20
17170;DHT22;8700;48.222;16.342;2024-03-17T15:40:07;14.90;65.90
17170;DHT22;8700;48.222;16.342;2024-03-17T15:43:36;14.90;66.30
17170;DHT22;8700;48.222;16.342;2024-03-17T15:46:59;14.90;66.10
17170;DHT22;8700;48.222;16.342;2024-03-17T15:50:20;14.80;65.90
17170;DHT22;8700;48.222;16.342;2024-03-17T15:53:44;14.60;66.70
17170;DHT22;8700;48.222;16.342;2024-03-17T15:57:05;14.70;66.40
17170;DHT22;8700;48.222;16.342;2024-03-17T16:00:26;14.70;66.50
17170;DHT22;8700;48.222;16.342;2024-03-17T16:03:48;14.70;66.70
17170;DHT22;8700;48.222;16.342;2024-03-17T16:07:08;14.70;66.50
17170;DHT22;8700;48.222;16.342;2024-03-17T16:10:33;14.50;67.00
17170;DHT22;8700;48.222;16.342;2024-03-17T16:13:55;14.60;66.80
17170;DHT22;8700;48.222;16.342;2024-03-17T16:17:18;14.60;66.60
17170;DHT22;8700;48.222;16.342;2024-03-17T16:20:59;14.40;66.70
17170;DHT22;8700;48.222;16.342;2024-03-17T16:24:24;14.30;66.80
17170;DHT22;8700;48.222;16.342;2024-03-17T16:27:47;14.10;67.30
17170;DHT22;8700;48.222;16.342;2024-03-17T16:31:08;14.10;67.70
17170;DHT22;8700;48.222;16.342;2024-03-17T16:34:29;14.00;67.90
17170;DHT22;8700;48.222;16.342;2024-03-17T16:37:52;14.00;68.00
17170;DHT22;8700;48.222;16.342;2024-03-17T16:41:13;13.90;68.10
17170;DHT22;8700;48.222;16.342;2024-03-17T16:44:42;13.90;67.70
17170;DHT22;8700;48.222;16.342;2024-03-17T16:48:05;13.80;68.30
17170;DHT22;8700;48.222;16.342;2024-03-17T16:51:26;13.70;68.40
17170;DHT22;8700;48.222;16.342;2024-03-17T16:54:49;13.70;68.30
17170;DHT22;8700;48.222;16.342;2024-03-17T16:58:09;13.70;68.40
17170;DHT22;8700;48.222;16.342;2024-03-17T17:01:32;13.50;68.50
17170;DHT22;8700;48.222;16.342;2024-03-17T17:04:56;13.40;69.00
17170;DHT22;8700;48.222;16.342;2024-03-17T17:08:17;13.40;69.00
17170;DHT22;8700;48.222;16.342;2024-03-17T17:11:38;13.40;69.00
17170;DHT22;8700;48.222;16.342;2024-03-17T17:15:00;13.40;68.70
17170;DHT22;8700;48.222;16.342;2024-03-17T17:18:49;13.30;68.80
17170;DHT22;8700;48.222;16.342;2024-03-17T17:22:12;13.30;69.10
17170;DHT22;8700;48.222;16.342;2024-03-17T17:25:34;13.30;69.00
17170;DHT22;8700;48.222;16.342;2024-03-17T17:28:56;13.30;69.10
17170;DHT22;8700;48.222;16.342;2024-03-17T17:32:18;13.20;70.00
17170;DHT22;8700;48.222;16.342;2024-03-17T17:35:40;13.20;69.50
17170;DHT22;8700;48.222;16.342;2024-03-17T17:39:01;13.30;69.30
17170;DHT22;8700;48.222;16.342;2024-03-17T17:42:23;13.10;69.50
17170;DHT22;8700;48.222;16.342;2024-03-17T17:45:44;13.10;69.90
17170;DHT22;8700;48.222;16.342;2024-03-17T17:49:05;13.10;69.80
17170;DHT22;8700;48.222;16.342;2024-03-17T17:52:27;13.10;70.00
17170;DHT22;8700;48.222;16.342;2024-03-17T17:55:49;13.00;70.30
17170;DHT22;8700;48.222;16.342;2024-03-17T17:59:10;13.00;70.40
17170;DHT22;8700;48.222;16.342;2024-03-17T18:02:31;13.00;70.10
17170;DHT22;8700;48.222;16.342;2024-03-17T18:05:52;12.90;70.50
17170;DHT22;8700;48.222;16.342;2024-03-17T18:09:15;12.90;70.60
17170;DHT22;8700;48.222;16.342;2024-03-17T18:12:42;12.80;71.40
17170;DHT22;8700;48.222;16.342;2024-03-17T18:16:06;12.80;71.30
17170;DHT22;8700;48.222;16.342;2024-03-17T18:19:28;12.70;71.80
17170;DHT22;8700;48.222;16.342;2024-03-17T18:22:49;12.70;71.60
17170;DHT22;8700;48.222;16.342;2024-03-17T18:26:12;12.60;72.20
17170;DHT22;8700;48.222;16.342;2024-03-17T18:29:34;12.60;72.30
17170;DHT22;8700;48.222;16.342;2024-03-17T18:32:55;12.60;72.70
17170;DHT22;8700;48.222;16.342;2024-03-17T18:36:17;12.50;72.80
17170;DHT22;8700;48.222;16.342;2024-03-17T18:39:38;12.50;72.90
17170;DHT22;8700;48.222;16.342;2024-03-17T18:43:06;12.50;73.20
17170;DHT22;8700;48.222;16.342;2024-03-17T18:46:28;12.50;73.00
17170;DHT22;8700;48.222;16.342;2024-03-17T18:49:50;12.50;73.10
17170;DHT22;8700;48.222;16.342;2024-03-17T18:53:13;12.40;73.10
17170;DHT22;8700;48.222;16.342;2024-03-17T18:56:34;12.40;73.00
17170;DHT22;8700;48.222;16.342;2024-03-17T18:59:56;12.30;73.00
17170;DHT22;8700;48.222;16.342;2024-03-17T19:03:17;12.30;73.10
17170;DHT22;8700;48.222;16.342;2024-03-17T19:06:39;12.30;73.60
17170;DHT22;8700;48.222;16.342;2024-03-17T19:10:01;12.30;73.90
17170;DHT22;8700;48.222;16.342;2024-03-17T19:13:24;12.40;73.50
17170;DHT22;8700;48.222;16.342;2024-03-17T19:16:48;12.30;73.60
17170;DHT22;8700;48.222;16.342;2024-03-17T19:20:12;12.40;73.40
17170;DHT22;8700;48.222;16.342;2024-03-17T19:23:34;12.30;73.10
17170;DHT22;8700;48.222;16.342;2024-03-17T19:26:55;12.20;73.10
17170;DHT22;8700;48.222;16.342;2024-03-17T19:30:17;12.10;73.20
17170;DHT22;8700;48.222;16.342;2024-03-17T19:33:41;12.10;73.40
17170;DHT22;8700;48.222;16.342;2024-03-17T19:37:02;12.10;73.60
17170;DHT22;8700;48.222;16.342;2024-03-17T19:40:25;12.10;73.50
17170;DHT22;8700;48.222;16.342;2024-03-17T19:43:48;12.10;73.40
17170;DHT22;8700;48.222;16.342;2024-03-17T19:47:10;12.00;73.50
17170;DHT22;8700;48.222;16.342;2024-03-17T19:50:33;11.90;73.80
17170;DHT22;8700;48.222;16.342;2024-03-17T19:53:54;12.00;73.60
17170;DHT22;8700;48.222;16.342;2024-03-17T19:57:15;11.90;73.60
17170;DHT22;8700;48.222;16.342;2024-03-17T20:00:37;11.90;73.70
17170;DHT22;8700;48.222;16.342;2024-03-17T20:03:58;11.80;73.80
17170;DHT22;8700;48.222;16.342;2024-03-17T20:07:20;11.80;74.80
17170;DHT22;8700;48.222;16.342;2024-03-17T20:10:41;11.70;74.30
17170;DHT22;8700;48.222;16.342;2024-03-17T20:14:03;11.70;74.50
17170;DHT22;8700;48.222;16.342;2024-03-17T20:17:25;11.70;74.60
17170;DHT22;8700;48.222;16.342;2024-03-17T20:20:46;11.60;74.60
17170;DHT22;8700;48.222;16.342;2024-03-17T20:24:08;11.60;74.80
17170;DHT22;8700;48.222;16.342;2024-03-17T20:27:30;11.60;74.70
17170;DHT22;8700;48.222;16.342;2024-03-17T20:30:51;11.50;75.00
17170;DHT22;8700;48.222;16.342;2024-03-17T20:34:12;11.50;75.60
17170;DHT22;8700;48.222;16.342;2024-03-17T20:37:33;11.40;75.60
17170;DHT22;8700;48.222;16.342;2024-03-17T20:40:56;11.50;76.00
17170;DHT22;8700;48.222;16.342;2024-03-17T20:44:17;11.40;75.90
17170;DHT22;8700;48.222;16.342;2024-03-17T20:47:41;11.30;76.20
17170;DHT22;8700;48.222;16.342;2024-03-17T20:51:03;11.30;76.30
17170;DHT22;8700;48.222;16.342;2024-03-17T20:54:24;11.30;76.40
17170;DHT22;8700;48.222;16.342;2024-03-17T20:57:48;11.30;76.70
17170;DHT22;8700;48.222;16.342;2024-03-17T21:01:11;11.30;77.20
17170;DHT22;8700;48.222;16.342;2024-03-17T21:04:32;11.30;77.60
17170;DHT22;8700;48.222;16.342;2024-03-17T21:07:54;11.30;77.40
17170;DHT22;8700;48.222;16.342;2024-03-17T21:11:15;11.30;77.30
17170;DHT22;8700;48.222;16.342;2024-03-17T21:14:38;11.30;77.00
17170;DHT22;8700;48.222;16.342;2024-03-17T21:17:59;11.30;77.00
17170;DHT22;8700;48.222;16.342;2024-03-17T21:21:20;11.20;77.00